Terminal Aerodrome Forecast
Issued by NWS North Platte, NE

Home | Current Version | Previous Version | Graphics & Text | Print | Product List | Glossary On
Versions: 1 2 3 4 5 6 7 8 9 10 11 12 13 14 15 16 17 18 19 20 21 22 23 24 25 26 27 28 29
000
FTUS43 KLBF 260520
TAFVTN
TAF
KVTN 260520Z 2606/2706 18010KT P6SM BKN250
     FM261500 18014KT P6SM FEW200
     FM261800 17015G21KT P6SM SCT060
     FM270000 14015G20KT P6SM BKN060 BKN120 PROB30 2700/2704 P6SM
      -TSRA BKN060CB BKN120=

USA.gov is the U.S. government's official web portal to all federal, state and local government web resources and services.